sensor_id;sensor_type;location;lat;lon;timestamp;P1;durP1;ratioP1;P2;durP2;ratioP2
24637;SDS011;12773;50.162;8.548;2022-12-26T00:01:21;10.00;;;5.12;;
24637;SDS011;12773;50.162;8.548;2022-12-26T00:04:10;9.88;;;5.47;;
24637;SDS011;12773;50.162;8.548;2022-12-26T00:06:59;9.95;;;5.28;;
24637;SDS011;12773;50.162;8.548;2022-12-26T00:09:47;12.10;;;4.95;;
24637;SDS011;12773;50.162;8.548;2022-12-26T00:12:34;9.15;;;5.00;;
24637;SDS011;12773;50.162;8.548;2022-12-26T00:15:24;8.95;;;5.25;;
24637;SDS011;12773;50.162;8.548;2022-12-26T00:18:11;9.25;;;4.97;;
24637;SDS011;12773;50.162;8.548;2022-12-26T00:20:59;8.95;;;5.45;;
24637;SDS011;12773;50.162;8.548;2022-12-26T00:23:46;9.25;;;5.10;;
24637;SDS011;12773;50.162;8.548;2022-12-26T00:26:34;8.60;;;4.95;;
24637;SDS011;12773;50.162;8.548;2022-12-26T00:29:24;7.25;;;4.33;;
24637;SDS011;12773;50.162;8.548;2022-12-26T00:32:12;10.98;;;4.95;;
24637;SDS011;12773;50.162;8.548;2022-12-26T00:34:59;11.35;;;5.05;;
24637;SDS011;12773;50.162;8.548;2022-12-26T00:37:46;8.18;;;5.28;;
24637;SDS011;12773;50.162;8.548;2022-12-26T00:40:34;8.28;;;4.80;;
24637;SDS011;12773;50.162;8.548;2022-12-26T00:43:22;8.63;;;4.65;;
24637;SDS011;12773;50.162;8.548;2022-12-26T00:46:09;9.28;;;5.12;;
24637;SDS011;12773;50.162;8.548;2022-12-26T00:48:57;11.35;;;4.83;;
24637;SDS011;12773;50.162;8.548;2022-12-26T00:51:45;6.78;;;4.12;;
24637;SDS011;12773;50.162;8.548;2022-12-26T00:54:32;8.23;;;4.58;;
24637;SDS011;12773;50.162;8.548;2022-12-26T00:57:24;7.90;;;4.80;;
24637;SDS011;12773;50.162;8.548;2022-12-26T01:00:12;7.00;;;4.47;;
24637;SDS011;12773;50.162;8.548;2022-12-26T01:02:59;9.60;;;4.12;;
24637;SDS011;12773;50.162;8.548;2022-12-26T01:05:48;8.43;;;4.65;;
24637;SDS011;12773;50.162;8.548;2022-12-26T01:08:37;8.70;;;4.35;;
24637;SDS011;12773;50.162;8.548;2022-12-26T01:11:26;9.15;;;4.33;;
24637;SDS011;12773;50.162;8.548;2022-12-26T01:14:25;9.68;;;4.45;;
24637;SDS011;12773;50.162;8.548;2022-12-26T01:17:13;8.53;;;4.35;;
24637;SDS011;12773;50.162;8.548;2022-12-26T01:20:01;8.53;;;4.90;;
24637;SDS011;12773;50.162;8.548;2022-12-26T01:22:49;7.42;;;4.50;;
24637;SDS011;12773;50.162;8.548;2022-12-26T01:25:38;7.37;;;4.25;;
24637;SDS011;12773;50.162;8.548;2022-12-26T01:28:27;9.60;;;4.40;;
24637;SDS011;12773;50.162;8.548;2022-12-26T01:31:15;10.53;;;4.15;;
24637;SDS011;12773;50.162;8.548;2022-12-26T01:34:03;9.23;;;4.00;;
24637;SDS011;12773;50.162;8.548;2022-12-26T01:36:54;12.37;;;4.45;;
24637;SDS011;12773;50.162;8.548;2022-12-26T01:39:41;7.10;;;4.12;;
24637;SDS011;12773;50.162;8.548;2022-12-26T01:42:34;7.17;;;4.22;;
24637;SDS011;12773;50.162;8.548;2022-12-26T01:48:19;8.90;;;4.00;;
24637;SDS011;12773;50.162;8.548;2022-12-26T01:51:14;7.78;;;4.12;;
24637;SDS011;12773;50.162;8.548;2022-12-26T01:54:04;7.10;;;3.80;;
24637;SDS011;12773;50.162;8.548;2022-12-26T01:56:56;5.92;;;3.90;;
24637;SDS011;12773;50.162;8.548;2022-12-26T01:59:46;7.25;;;4.00;;
24637;SDS011;12773;50.162;8.548;2022-12-26T02:02:35;6.65;;;4.20;;
24637;SDS011;12773;50.162;8.548;2022-12-26T02:05:40;6.60;;;3.40;;
24637;SDS011;12773;50.162;8.548;2022-12-26T02:08:30;7.03;;;3.67;;
24637;SDS011;12773;50.162;8.548;2022-12-26T02:11:23;6.45;;;3.67;;
24637;SDS011;12773;50.162;8.548;2022-12-26T02:14:12;8.10;;;3.90;;
24637;SDS011;12773;50.162;8.548;2022-12-26T02:17:03;5.50;;;3.42;;
24637;SDS011;12773;50.162;8.548;2022-12-26T02:25:59;9.00;;;3.85;;
24637;SDS011;12773;50.162;8.548;2022-12-26T02:29:14;8.43;;;3.75;;
24637;SDS011;12773;50.162;8.548;2022-12-26T02:32:25;5.80;;;3.52;;
24637;SDS011;12773;50.162;8.548;2022-12-26T02:38:46;6.47;;;3.65;;
24637;SDS011;12773;50.162;8.548;2022-12-26T02:41:44;8.75;;;3.62;;
24637;SDS011;12773;50.162;8.548;2022-12-26T02:54:38;7.03;;;3.47;;
24637;SDS011;12773;50.162;8.548;2022-12-26T02:58:03;6.55;;;3.33;;
24637;SDS011;12773;50.162;8.548;2022-12-26T03:01:24;6.37;;;3.35;;
24637;SDS011;12773;50.162;8.548;2022-12-26T03:04:32;6.67;;;4.00;;
24637;SDS011;12773;50.162;8.548;2022-12-26T03:07:39;7.35;;;3.67;;
24637;SDS011;12773;50.162;8.548;2022-12-26T03:10:47;6.85;;;3.83;;
24637;SDS011;12773;50.162;8.548;2022-12-26T03:13:56;8.23;;;3.58;;
24637;SDS011;12773;50.162;8.548;2022-12-26T03:16:49;7.87;;;3.70;;
24637;SDS011;12773;50.162;8.548;2022-12-26T03:19:58;5.22;;;3.00;;
24637;SDS011;12773;50.162;8.548;2022-12-26T03:22:54;9.18;;;3.55;;
24637;SDS011;12773;50.162;8.548;2022-12-26T03:25:47;5.03;;;3.37;;
24637;SDS011;12773;50.162;8.548;2022-12-26T03:28:53;6.62;;;3.27;;
24637;SDS011;12773;50.162;8.548;2022-12-26T03:31:42;7.22;;;3.47;;
24637;SDS011;12773;50.162;8.548;2022-12-26T03:34:29;9.00;;;3.60;;
24637;SDS011;12773;50.162;8.548;2022-12-26T03:37:24;8.18;;;3.15;;
24637;SDS011;12773;50.162;8.548;2022-12-26T03:43:45;5.92;;;3.62;;
24637;SDS011;12773;50.162;8.548;2022-12-26T03:50:27;10.05;;;3.90;;
24637;SDS011;12773;50.162;8.548;2022-12-26T03:53:30;8.43;;;3.60;;
24637;SDS011;12773;50.162;8.548;2022-12-26T04:02:54;6.12;;;3.27;;
24637;SDS011;12773;50.162;8.548;2022-12-26T04:06:02;4.87;;;3.20;;
24637;SDS011;12773;50.162;8.548;2022-12-26T04:09:15;5.62;;;3.47;;
24637;SDS011;12773;50.162;8.548;2022-12-26T04:12:26;7.42;;;3.62;;
24637;SDS011;12773;50.162;8.548;2022-12-26T04:15:43;8.48;;;3.42;;
24637;SDS011;12773;50.162;8.548;2022-12-26T04:18:59;8.33;;;3.60;;
24637;SDS011;12773;50.162;8.548;2022-12-26T04:22:19;9.23;;;3.50;;
24637;SDS011;12773;50.162;8.548;2022-12-26T04:25:40;5.90;;;3.50;;
24637;SDS011;12773;50.162;8.548;2022-12-26T04:28:46;6.22;;;3.12;;
24637;SDS011;12773;50.162;8.548;2022-12-26T04:32:12;5.78;;;3.27;;
24637;SDS011;12773;50.162;8.548;2022-12-26T04:38:39;5.90;;;3.10;;
24637;SDS011;12773;50.162;8.548;2022-12-26T04:41:45;5.60;;;3.30;;
24637;SDS011;12773;50.162;8.548;2022-12-26T04:47:40;5.28;;;3.10;;
24637;SDS011;12773;50.162;8.548;2022-12-26T04:50:28;6.65;;;3.52;;
24637;SDS011;12773;50.162;8.548;2022-12-26T04:53:16;7.85;;;3.35;;
24637;SDS011;12773;50.162;8.548;2022-12-26T04:56:07;4.78;;;2.87;;
24637;SDS011;12773;50.162;8.548;2022-12-26T04:58:55;9.38;;;3.50;;
24637;SDS011;12773;50.162;8.548;2022-12-26T05:01:44;8.00;;;3.17;;
24637;SDS011;12773;50.162;8.548;2022-12-26T05:04:49;4.83;;;3.12;;
24637;SDS011;12773;50.162;8.548;2022-12-26T05:07:54;7.10;;;3.35;;
24637;SDS011;12773;50.162;8.548;2022-12-26T05:11:00;8.50;;;3.17;;
24637;SDS011;12773;50.162;8.548;2022-12-26T05:13:47;5.00;;;3.25;;
24637;SDS011;12773;50.162;8.548;2022-12-26T05:16:38;7.30;;;3.05;;
24637;SDS011;12773;50.162;8.548;2022-12-26T05:19:43;7.97;;;3.12;;
24637;SDS011;12773;50.162;8.548;2022-12-26T05:22:49;8.30;;;3.37;;
24637;SDS011;12773;50.162;8.548;2022-12-26T05:25:56;6.90;;;2.85;;
24637;SDS011;12773;50.162;8.548;2022-12-26T05:29:02;6.33;;;3.55;;
24637;SDS011;12773;50.162;8.548;2022-12-26T05:31:49;6.37;;;3.10;;
24637;SDS011;12773;50.162;8.548;2022-12-26T05:34:38;5.42;;;2.95;;
24637;SDS011;12773;50.162;8.548;2022-12-26T05:37:25;6.15;;;3.30;;
24637;SDS011;12773;50.162;8.548;2022-12-26T05:40:12;7.22;;;3.33;;
24637;SDS011;12773;50.162;8.548;2022-12-26T05:43:00;7.35;;;3.15;;
24637;SDS011;12773;50.162;8.548;2022-12-26T05:45:47;9.63;;;3.15;;
24637;SDS011;12773;50.162;8.548;2022-12-26T05:48:41;11.12;;;3.47;;
24637;SDS011;12773;50.162;8.548;2022-12-26T05:51:28;5.35;;;2.98;;
24637;SDS011;12773;50.162;8.548;2022-12-26T05:54:16;9.20;;;2.92;;
24637;SDS011;12773;50.162;8.548;2022-12-26T05:57:03;10.63;;;3.20;;
24637;SDS011;12773;50.162;8.548;2022-12-26T05:59:50;7.60;;;2.98;;
24637;SDS011;12773;50.162;8.548;2022-12-26T06:02:41;4.45;;;2.83;;
24637;SDS011;12773;50.162;8.548;2022-12-26T06:05:28;4.25;;;2.80;;
24637;SDS011;12773;50.162;8.548;2022-12-26T06:08:15;7.72;;;3.02;;
24637;SDS011;12773;50.162;8.548;2022-12-26T06:11:04;9.65;;;2.95;;
24637;SDS011;12773;50.162;8.548;2022-12-26T06:13:52;6.78;;;3.52;;
24637;SDS011;12773;50.162;8.548;2022-12-26T06:16:40;7.08;;;3.17;;
24637;SDS011;12773;50.162;8.548;2022-12-26T06:19:27;5.08;;;3.08;;
24637;SDS011;12773;50.162;8.548;2022-12-26T06:22:15;7.70;;;3.25;;
24637;SDS011;12773;50.162;8.548;2022-12-26T06:25:02;5.60;;;2.55;;
24637;SDS011;12773;50.162;8.548;2022-12-26T06:27:50;8.53;;;2.80;;
24637;SDS011;12773;50.162;8.548;2022-12-26T06:30:38;8.48;;;3.02;;
24637;SDS011;12773;50.162;8.548;2022-12-26T06:33:26;8.68;;;3.10;;
24637;SDS011;12773;50.162;8.548;2022-12-26T06:36:14;6.22;;;2.92;;
24637;SDS011;12773;50.162;8.548;2022-12-26T06:39:03;6.12;;;2.75;;
24637;SDS011;12773;50.162;8.548;2022-12-26T06:41:50;4.67;;;2.35;;
24637;SDS011;12773;50.162;8.548;2022-12-26T06:44:41;5.60;;;2.90;;
24637;SDS011;12773;50.162;8.548;2022-12-26T06:47:28;7.95;;;2.87;;
24637;SDS011;12773;50.162;8.548;2022-12-26T06:50:20;5.47;;;3.00;;
24637;SDS011;12773;50.162;8.548;2022-12-26T06:53:07;6.33;;;2.80;;
24637;SDS011;12773;50.162;8.548;2022-12-26T06:55:55;4.80;;;2.60;;
24637;SDS011;12773;50.162;8.548;2022-12-26T06:58:45;5.20;;;2.60;;
24637;SDS011;12773;50.162;8.548;2022-12-26T07:01:33;4.53;;;2.40;;
24637;SDS011;12773;50.162;8.548;2022-12-26T07:04:24;7.58;;;2.55;;
24637;SDS011;12773;50.162;8.548;2022-12-26T07:07:09;5.58;;;2.30;;
24637;SDS011;12773;50.162;8.548;2022-12-26T07:09:59;6.55;;;3.08;;
24637;SDS011;12773;50.162;8.548;2022-12-26T07:12:47;5.67;;;2.80;;
24637;SDS011;12773;50.162;8.548;2022-12-26T07:15:34;3.90;;;2.50;;
24637;SDS011;12773;50.162;8.548;2022-12-26T07:18:22;6.60;;;2.80;;
24637;SDS011;12773;50.162;8.548;2022-12-26T07:21:10;4.95;;;2.45;;
24637;SDS011;12773;50.162;8.548;2022-12-26T07:23:59;6.97;;;2.67;;
24637;SDS011;12773;50.162;8.548;2022-12-26T07:26:47;7.80;;;2.90;;
24637;SDS011;12773;50.162;8.548;2022-12-26T07:29:34;4.58;;;3.10;;
24637;SDS011;12773;50.162;8.548;2022-12-26T07:32:22;7.95;;;3.45;;
24637;SDS011;12773;50.162;8.548;2022-12-26T07:35:09;6.40;;;2.90;;
24637;SDS011;12773;50.162;8.548;2022-12-26T07:37:57;13.83;;;4.08;;
24637;SDS011;12773;50.162;8.548;2022-12-26T07:40:44;6.53;;;3.52;;
24637;SDS011;12773;50.162;8.548;2022-12-26T07:43:33;6.15;;;3.40;;
24637;SDS011;12773;50.162;8.548;2022-12-26T07:46:20;6.42;;;3.65;;
24637;SDS011;12773;50.162;8.548;2022-12-26T07:49:10;9.33;;;3.40;;
24637;SDS011;12773;50.162;8.548;2022-12-26T07:51:58;7.92;;;3.30;;
24637;SDS011;12773;50.162;8.548;2022-12-26T07:54:46;6.25;;;3.30;;
24637;SDS011;12773;50.162;8.548;2022-12-26T07:57:34;10.18;;;3.72;;
24637;SDS011;12773;50.162;8.548;2022-12-26T08:00:23;7.92;;;3.60;;
24637;SDS011;12773;50.162;8.548;2022-12-26T08:03:10;5.15;;;3.42;;
24637;SDS011;12773;50.162;8.548;2022-12-26T08:05:57;7.53;;;3.22;;
24637;SDS011;12773;50.162;8.548;2022-12-26T08:08:45;6.75;;;3.12;;
24637;SDS011;12773;50.162;8.548;2022-12-26T08:11:34;7.78;;;3.27;;
24637;SDS011;12773;50.162;8.548;2022-12-26T08:14:22;9.63;;;3.42;;
24637;SDS011;12773;50.162;8.548;2022-12-26T08:17:09;9.95;;;3.90;;
24637;SDS011;12773;50.162;8.548;2022-12-26T08:19:57;9.90;;;4.20;;
24637;SDS011;12773;50.162;8.548;2022-12-26T08:22:44;8.33;;;4.62;;
24637;SDS011;12773;50.162;8.548;2022-12-26T08:25:31;12.85;;;4.97;;
24637;SDS011;12773;50.162;8.548;2022-12-26T08:28:19;8.75;;;5.08;;
24637;SDS011;12773;50.162;8.548;2022-12-26T08:31:09;9.03;;;4.83;;
24637;SDS011;12773;50.162;8.548;2022-12-26T08:33:58;10.60;;;4.75;;
24637;SDS011;12773;50.162;8.548;2022-12-26T08:36:45;8.48;;;4.83;;
24637;SDS011;12773;50.162;8.548;2022-12-26T08:39:40;7.67;;;4.62;;
24637;SDS011;12773;50.162;8.548;2022-12-26T08:42:28;7.78;;;4.58;;
24637;SDS011;12773;50.162;8.548;2022-12-26T08:45:16;8.93;;;4.75;;
24637;SDS011;12773;50.162;8.548;2022-12-26T08:48:03;12.90;;;5.00;;
24637;SDS011;12773;50.162;8.548;2022-12-26T08:50:57;10.50;;;4.78;;
24637;SDS011;12773;50.162;8.548;2022-12-26T08:53:47;13.32;;;4.60;;
24637;SDS011;12773;50.162;8.548;2022-12-26T08:56:37;10.75;;;5.05;;
24637;SDS011;12773;50.162;8.548;2022-12-26T08:59:24;9.63;;;4.47;;
24637;SDS011;12773;50.162;8.548;2022-12-26T09:02:12;9.88;;;4.97;;
24637;SDS011;12773;50.162;8.548;2022-12-26T09:04:59;9.03;;;4.47;;
24637;SDS011;12773;50.162;8.548;2022-12-26T09:07:46;8.88;;;4.53;;
24637;SDS011;12773;50.162;8.548;2022-12-26T09:10:34;8.80;;;4.20;;
24637;SDS011;12773;50.162;8.548;2022-12-26T09:13:22;10.25;;;4.70;;
24637;SDS011;12773;50.162;8.548;2022-12-26T09:16:10;10.80;;;4.22;;
24637;SDS011;12773;50.162;8.548;2022-12-26T09:19:00;10.25;;;4.37;;
24637;SDS011;12773;50.162;8.548;2022-12-26T09:21:49;6.35;;;4.10;;
24637;SDS011;12773;50.162;8.548;2022-12-26T09:24:41;8.18;;;4.33;;
24637;SDS011;12773;50.162;8.548;2022-12-26T09:27:29;7.90;;;4.40;;
24637;SDS011;12773;50.162;8.548;2022-12-26T09:30:16;8.58;;;4.78;;
24637;SDS011;12773;50.162;8.548;2022-12-26T09:33:03;8.45;;;4.08;;
24637;SDS011;12773;50.162;8.548;2022-12-26T09:35:52;9.38;;;4.83;;
24637;SDS011;12773;50.162;8.548;2022-12-26T09:38:41;12.03;;;4.58;;
24637;SDS011;12773;50.162;8.548;2022-12-26T09:41:52;7.62;;;4.50;;
24637;SDS011;12773;50.162;8.548;2022-12-26T09:44:42;12.18;;;4.58;;
24637;SDS011;12773;50.162;8.548;2022-12-26T09:47:34;8.55;;;4.65;;
24637;SDS011;12773;50.162;8.548;2022-12-26T09:50:29;11.63;;;4.90;;
24637;SDS011;12773;50.162;8.548;2022-12-26T09:53:18;12.47;;;4.60;;
24637;SDS011;12773;50.162;8.548;2022-12-26T09:56:11;9.85;;;5.25;;
24637;SDS011;12773;50.162;8.548;2022-12-26T09:59:18;8.60;;;5.05;;
24637;SDS011;12773;50.162;8.548;2022-12-26T10:02:15;10.03;;;4.90;;
24637;SDS011;12773;50.162;8.548;2022-12-26T10:05:02;14.70;;;4.90;;
24637;SDS011;12773;50.162;8.548;2022-12-26T10:07:56;20.43;;;10.63;;
24637;SDS011;12773;50.162;8.548;2022-12-26T10:10:57;14.18;;;9.18;;
24637;SDS011;12773;50.162;8.548;2022-12-26T10:13:52;17.50;;;7.37;;
24637;SDS011;12773;50.162;8.548;2022-12-26T10:16:52;14.47;;;6.75;;
24637;SDS011;12773;50.162;8.548;2022-12-26T10:19:47;13.43;;;6.85;;
24637;SDS011;12773;50.162;8.548;2022-12-26T10:25:52;16.40;;;6.50;;
24637;SDS011;12773;50.162;8.548;2022-12-26T10:28:55;9.13;;;5.67;;
24637;SDS011;12773;50.162;8.548;2022-12-26T10:31:55;13.62;;;6.30;;
24637;SDS011;12773;50.162;8.548;2022-12-26T10:34:44;15.23;;;6.20;;
24637;SDS011;12773;50.162;8.548;2022-12-26T10:37:38;12.93;;;6.58;;
24637;SDS011;12773;50.162;8.548;2022-12-26T10:40:33;15.48;;;6.47;;
24637;SDS011;12773;50.162;8.548;2022-12-26T10:46:29;12.78;;;6.47;;
24637;SDS011;12773;50.162;8.548;2022-12-26T10:49:17;14.78;;;6.55;;
24637;SDS011;12773;50.162;8.548;2022-12-26T10:52:08;10.45;;;5.33;;
24637;SDS011;12773;50.162;8.548;2022-12-26T10:54:58;9.40;;;4.70;;
24637;SDS011;12773;50.162;8.548;2022-12-26T10:57:49;9.38;;;4.70;;
24637;SDS011;12773;50.162;8.548;2022-12-26T11:00:37;7.92;;;4.42;;
24637;SDS011;12773;50.162;8.548;2022-12-26T11:03:24;12.60;;;4.95;;
24637;SDS011;12773;50.162;8.548;2022-12-26T11:06:12;8.18;;;3.85;;
24637;SDS011;12773;50.162;8.548;2022-12-26T11:09:00;6.50;;;3.92;;
24637;SDS011;12773;50.162;8.548;2022-12-26T11:11:47;8.25;;;4.05;;
24637;SDS011;12773;50.162;8.548;2022-12-26T11:14:37;7.85;;;3.60;;
24637;SDS011;12773;50.162;8.548;2022-12-26T11:17:27;6.58;;;3.10;;
24637;SDS011;12773;50.162;8.548;2022-12-26T11:20:25;8.03;;;3.20;;
24637;SDS011;12773;50.162;8.548;2022-12-26T11:23:24;3.90;;;2.30;;
24637;SDS011;12773;50.162;8.548;2022-12-26T11:26:21;4.17;;;2.33;;
24637;SDS011;12773;50.162;8.548;2022-12-26T11:29:15;3.00;;;1.98;;
24637;SDS011;12773;50.162;8.548;2022-12-26T11:32:05;4.78;;;2.12;;
24637;SDS011;12773;50.162;8.548;2022-12-26T11:34:53;4.03;;;1.82;;
24637;SDS011;12773;50.162;8.548;2022-12-26T11:37:43;3.45;;;1.65;;
24637;SDS011;12773;50.162;8.548;2022-12-26T11:40:34;3.80;;;1.80;;
24637;SDS011;12773;50.162;8.548;2022-12-26T11:43:23;4.97;;;1.47;;
24637;SDS011;12773;50.162;8.548;2022-12-26T11:46:13;2.25;;;1.55;;
24637;SDS011;12773;50.162;8.548;2022-12-26T11:49:01;7.20;;;1.77;;
24637;SDS011;12773;50.162;8.548;2022-12-26T11:51:49;5.33;;;1.60;;
24637;SDS011;12773;50.162;8.548;2022-12-26T11:54:48;7.10;;;2.67;;
24637;SDS011;12773;50.162;8.548;2022-12-26T11:57:38;5.50;;;2.27;;
24637;SDS011;12773;50.162;8.548;2022-12-26T12:00:29;5.15;;;1.90;;
24637;SDS011;12773;50.162;8.548;2022-12-26T12:03:21;3.70;;;1.70;;
24637;SDS011;12773;50.162;8.548;2022-12-26T12:06:23;2.95;;;1.50;;
24637;SDS011;12773;50.162;8.548;2022-12-26T12:09:43;2.90;;;1.50;;
24637;SDS011;12773;50.162;8.548;2022-12-26T12:12:29;3.45;;;1.30;;
24637;SDS011;12773;50.162;8.548;2022-12-26T12:18:21;2.20;;;1.37;;
24637;SDS011;12773;50.162;8.548;2022-12-26T12:21:31;3.70;;;1.10;;
24637;SDS011;12773;50.162;8.548;2022-12-26T12:24:33;1.55;;;1.00;;
24637;SDS011;12773;50.162;8.548;2022-12-26T12:27:26;2.52;;;1.20;;
24637;SDS011;12773;50.162;8.548;2022-12-26T12:30:22;4.47;;;1.75;;
24637;SDS011;12773;50.162;8.548;2022-12-26T12:36:17;2.52;;;1.52;;
24637;SDS011;12773;50.162;8.548;2022-12-26T12:39:10;2.63;;;1.60;;
24637;SDS011;12773;50.162;8.548;2022-12-26T12:42:02;3.42;;;1.95;;
24637;SDS011;12773;50.162;8.548;2022-12-26T12:51:21;2.37;;;1.47;;
24637;SDS011;12773;50.162;8.548;2022-12-26T12:54:18;3.00;;;1.42;;
24637;SDS011;12773;50.162;8.548;2022-12-26T13:00:28;19.60;;;5.40;;
24637;SDS011;12773;50.162;8.548;2022-12-26T13:06:22;7.25;;;2.45;;
24637;SDS011;12773;50.162;8.548;2022-12-26T13:09:12;11.60;;;2.05;;
24637;SDS011;12773;50.162;8.548;2022-12-26T13:12:02;4.20;;;1.90;;
24637;SDS011;12773;50.162;8.548;2022-12-26T13:14:55;1.80;;;1.27;;
24637;SDS011;12773;50.162;8.548;2022-12-26T13:21:03;4.62;;;1.67;;
24637;SDS011;12773;50.162;8.548;2022-12-26T13:24:01;4.62;;;1.55;;
24637;SDS011;12773;50.162;8.548;2022-12-26T13:30:14;2.92;;;1.20;;
24637;SDS011;12773;50.162;8.548;2022-12-26T13:33:03;5.60;;;1.47;;
24637;SDS011;12773;50.162;8.548;2022-12-26T13:54:28;0.68;;;0.50;;
24637;SDS011;12773;50.162;8.548;2022-12-26T13:57:39;3.60;;;0.62;;
24637;SDS011;12773;50.162;8.548;2022-12-26T14:00:32;2.20;;;0.80;;
24637;SDS011;12773;50.162;8.548;2022-12-26T14:03:19;1.50;;;0.82;;
24637;SDS011;12773;50.162;8.548;2022-12-26T14:06:19;4.10;;;0.90;;
24637;SDS011;12773;50.162;8.548;2022-12-26T14:09:27;2.62;;;1.07;;
24637;SDS011;12773;50.162;8.548;2022-12-26T14:12:27;3.27;;;0.78;;
24637;SDS011;12773;50.162;8.548;2022-12-26T14:15:31;2.02;;;0.90;;
24637;SDS011;12773;50.162;8.548;2022-12-26T14:18:39;2.52;;;0.80;;
24637;SDS011;12773;50.162;8.548;2022-12-26T14:28:13;2.30;;;0.78;;
24637;SDS011;12773;50.162;8.548;2022-12-26T14:31:36;3.40;;;0.80;;
24637;SDS011;12773;50.162;8.548;2022-12-26T14:37:56;3.37;;;0.65;;
24637;SDS011;12773;50.162;8.548;2022-12-26T14:43:56;0.98;;;0.50;;
24637;SDS011;12773;50.162;8.548;2022-12-26T14:49:36;1.62;;;0.80;;
24637;SDS011;12773;50.162;8.548;2022-12-26T14:55:37;2.05;;;0.90;;
24637;SDS011;12773;50.162;8.548;2022-12-26T14:58:38;2.52;;;0.80;;
24637;SDS011;12773;50.162;8.548;2022-12-26T15:04:29;4.33;;;0.70;;
24637;SDS011;12773;50.162;8.548;2022-12-26T15:16:53;3.12;;;0.90;;
24637;SDS011;12773;50.162;8.548;2022-12-26T15:23:16;2.33;;;0.93;;
24637;SDS011;12773;50.162;8.548;2022-12-26T15:25:57;1.45;;;1.00;;
24637;SDS011;12773;50.162;8.548;2022-12-26T15:34:56;4.67;;;1.10;;
24637;SDS011;12773;50.162;8.548;2022-12-26T15:38:12;3.02;;;0.70;;
24637;SDS011;12773;50.162;8.548;2022-12-26T15:41:09;2.72;;;0.80;;
24637;SDS011;12773;50.162;8.548;2022-12-26T15:43:58;2.27;;;0.70;;
24637;SDS011;12773;50.162;8.548;2022-12-26T15:47:33;1.98;;;0.70;;
24637;SDS011;12773;50.162;8.548;2022-12-26T15:56:03;4.28;;;0.90;;
24637;SDS011;12773;50.162;8.548;2022-12-26T16:02:10;1.95;;;1.05;;
24637;SDS011;12773;50.162;8.548;2022-12-26T16:12:16;1.85;;;0.98;;
24637;SDS011;12773;50.162;8.548;2022-12-26T16:14:25;2.25;;;1.15;;
24637;SDS011;12773;50.162;8.548;2022-12-26T16:17:20;1.67;;;1.00;;
24637;SDS011;12773;50.162;8.548;2022-12-26T16:20:28;2.83;;;0.90;;
24637;SDS011;12773;50.162;8.548;2022-12-26T16:23:29;5.62;;;1.20;;
24637;SDS011;12773;50.162;8.548;2022-12-26T16:26:25;2.62;;;1.02;;
24637;SDS011;12773;50.162;8.548;2022-12-26T16:29:12;3.05;;;1.35;;
24637;SDS011;12773;50.162;8.548;2022-12-26T16:32:02;3.20;;;1.42;;
24637;SDS011;12773;50.162;8.548;2022-12-26T16:34:55;2.25;;;1.02;;
24637;SDS011;12773;50.162;8.548;2022-12-26T16:37:44;2.75;;;1.07;;
24637;SDS011;12773;50.162;8.548;2022-12-26T16:40:33;2.70;;;1.57;;
24637;SDS011;12773;50.162;8.548;2022-12-26T16:43:25;4.78;;;1.22;;
24637;SDS011;12773;50.162;8.548;2022-12-26T16:46:14;2.17;;;0.95;;
24637;SDS011;12773;50.162;8.548;2022-12-26T16:49:07;3.20;;;1.10;;
24637;SDS011;12773;50.162;8.548;2022-12-26T16:51:56;10.03;;;1.00;;
24637;SDS011;12773;50.162;8.548;2022-12-26T16:54:45;4.62;;;1.05;;
24637;SDS011;12773;50.162;8.548;2022-12-26T16:57:32;2.80;;;0.98;;
24637;SDS011;12773;50.162;8.548;2022-12-26T17:00:21;0.95;;;0.60;;
24637;SDS011;12773;50.162;8.548;2022-12-26T17:03:16;2.42;;;0.70;;
24637;SDS011;12773;50.162;8.548;2022-12-26T17:06:10;1.10;;;0.55;;
24637;SDS011;12773;50.162;8.548;2022-12-26T17:09:09;3.37;;;1.00;;
24637;SDS011;12773;50.162;8.548;2022-12-26T17:14:48;2.08;;;1.00;;
24637;SDS011;12773;50.162;8.548;2022-12-26T17:17:38;2.98;;;0.98;;
24637;SDS011;12773;50.162;8.548;2022-12-26T17:20:31;4.58;;;1.00;;
24637;SDS011;12773;50.162;8.548;2022-12-26T17:23:37;2.20;;;0.75;;
24637;SDS011;12773;50.162;8.548;2022-12-26T17:26:26;4.20;;;1.10;;
24637;SDS011;12773;50.162;8.548;2022-12-26T17:32:32;2.08;;;1.10;;
24637;SDS011;12773;50.162;8.548;2022-12-26T17:35:25;3.15;;;0.90;;
24637;SDS011;12773;50.162;8.548;2022-12-26T17:38:24;2.58;;;0.90;;
24637;SDS011;12773;50.162;8.548;2022-12-26T17:41:14;1.95;;;1.40;;
24637;SDS011;12773;50.162;8.548;2022-12-26T17:44:03;1.77;;;1.20;;
24637;SDS011;12773;50.162;8.548;2022-12-26T17:46:53;3.45;;;1.30;;
24637;SDS011;12773;50.162;8.548;2022-12-26T17:49:40;0.80;;;0.60;;
24637;SDS011;12773;50.162;8.548;2022-12-26T17:52:28;2.25;;;0.80;;
24637;SDS011;12773;50.162;8.548;2022-12-26T17:55:17;0.82;;;0.60;;
24637;SDS011;12773;50.162;8.548;2022-12-26T17:58:12;2.50;;;0.80;;
24637;SDS011;12773;50.162;8.548;2022-12-26T18:01:00;2.58;;;0.80;;
24637;SDS011;12773;50.162;8.548;2022-12-26T18:03:48;2.45;;;1.10;;
24637;SDS011;12773;50.162;8.548;2022-12-26T18:06:37;1.82;;;1.00;;
24637;SDS011;12773;50.162;8.548;2022-12-26T18:09:25;1.95;;;1.25;;
24637;SDS011;12773;50.162;8.548;2022-12-26T18:12:14;2.27;;;1.00;;
24637;SDS011;12773;50.162;8.548;2022-12-26T18:15:02;1.60;;;1.02;;
24637;SDS011;12773;50.162;8.548;2022-12-26T18:17:52;1.42;;;0.93;;
24637;SDS011;12773;50.162;8.548;2022-12-26T18:20:44;3.50;;;1.20;;
24637;SDS011;12773;50.162;8.548;2022-12-26T18:23:29;1.42;;;0.70;;
24637;SDS011;12773;50.162;8.548;2022-12-26T18:26:24;2.45;;;0.70;;
24637;SDS011;12773;50.162;8.548;2022-12-26T18:32:01;0.40;;;0.40;;
24637;SDS011;12773;50.162;8.548;2022-12-26T18:34:48;0.60;;;0.40;;
24637;SDS011;12773;50.162;8.548;2022-12-26T18:37:37;1.35;;;0.62;;
24637;SDS011;12773;50.162;8.548;2022-12-26T18:40:26;0.62;;;0.50;;
24637;SDS011;12773;50.162;8.548;2022-12-26T18:43:18;1.12;;;0.70;;
24637;SDS011;12773;50.162;8.548;2022-12-26T18:46:08;2.77;;;1.05;;
24637;SDS011;12773;50.162;8.548;2022-12-26T18:49:04;1.72;;;1.15;;
24637;SDS011;12773;50.162;8.548;2022-12-26T18:51:52;3.83;;;1.00;;
24637;SDS011;12773;50.162;8.548;2022-12-26T18:54:39;4.22;;;1.20;;
24637;SDS011;12773;50.162;8.548;2022-12-26T18:57:26;3.72;;;1.40;;
24637;SDS011;12773;50.162;8.548;2022-12-26T19:00:14;1.52;;;0.98;;
24637;SDS011;12773;50.162;8.548;2022-12-26T19:03:02;5.83;;;1.20;;
24637;SDS011;12773;50.162;8.548;2022-12-26T19:05:50;5.37;;;1.30;;
24637;SDS011;12773;50.162;8.548;2022-12-26T19:08:40;4.05;;;1.37;;
24637;SDS011;12773;50.162;8.548;2022-12-26T19:11:28;2.80;;;1.55;;
24637;SDS011;12773;50.162;8.548;2022-12-26T19:14:17;3.77;;;1.40;;
24637;SDS011;12773;50.162;8.548;2022-12-26T19:17:07;3.08;;;1.27;;
24637;SDS011;12773;50.162;8.548;2022-12-26T19:19:59;3.33;;;1.70;;
24637;SDS011;12773;50.162;8.548;2022-12-26T19:22:45;6.20;;;1.65;;
24637;SDS011;12773;50.162;8.548;2022-12-26T19:25:33;2.75;;;1.70;;
24637;SDS011;12773;50.162;8.548;2022-12-26T19:28:24;2.55;;;1.82;;
24637;SDS011;12773;50.162;8.548;2022-12-26T19:31:12;4.12;;;1.77;;
24637;SDS011;12773;50.162;8.548;2022-12-26T19:34:01;3.17;;;1.60;;
24637;SDS011;12773;50.162;8.548;2022-12-26T19:36:49;3.17;;;1.15;;
24637;SDS011;12773;50.162;8.548;2022-12-26T19:39:37;4.75;;;2.27;;
24637;SDS011;12773;50.162;8.548;2022-12-26T19:42:24;4.10;;;1.82;;
24637;SDS011;12773;50.162;8.548;2022-12-26T19:45:12;9.35;;;3.98;;
24637;SDS011;12773;50.162;8.548;2022-12-26T19:48:00;2.98;;;1.50;;
24637;SDS011;12773;50.162;8.548;2022-12-26T19:50:47;8.30;;;2.83;;
24637;SDS011;12773;50.162;8.548;2022-12-26T19:53:35;3.45;;;1.20;;
24637;SDS011;12773;50.162;8.548;2022-12-26T19:56:25;3.70;;;1.77;;